Archival Weather

Half Moon Bay

Half Moon Bay, California (KHAF)

Report from: Wednesday, December 6, 2023 4:15 PM PST
Current time: Saturday, February 24, 2024 8:13 AM PST

Current weather – Weather history – Daily summaries
Weather forecast

Present weatherMist
Temperature15.0°C (59.0°F)
Dew point15.0°C (59.0°F)
Winds 7 kts (3.6 m/s, 8.1 mph) South (180°)
Wind gusts 14 kts (7.2 m/s, 16.1 mph)
Visibility2.5 mi. (4 km)
Clouds Few clouds 400 ft. (122 m)
Ceiling: Broken clouds 900 ft. (274 m)
Broken clouds 1,500 ft. (457 m)
Altimeter30.03 in.Hg (1017 mB)
Relative humidity100 %
Density altitude111 ft. (34 m)
Remarks Fully automated report
Automated weather observing station with precipitation discriminator
Flight conditions Instrument Meteorological Conditions
Raw dataKHAF 070015Z AUTO 18007G14KT 2 1/2SM BR FEW004 BKN009 BKN015 15/15 A3003 RMK AO2
An error has occurred. This application may no longer respond until reloaded. Reload 🗙